Time;durP1;ratioP1;P1;durP2;ratioP2;P2;SDS_P1;SDS_P2;PMS_P1;PMS_P2;Temp;Humidity;BMP_temperature;BMP_pressure;BME280_temperature;BME280_humidity;BME280_pressure;Samples;Min_cycle;Max_cycle;Signal;HPM_P1;HPM_P2
2023/01/01 00:02:23;;;;;;;112.53;51.40;;;5.30;99.90;;;;;;5091159;28;20043;-61
2023/01/01 00:04:49;;;;;;;114.88;50.67;;;5.30;99.90;;;;;;5093320;28;20119;-61
2023/01/01 00:08:17;;;;;;;109.20;48.28;;;5.30;99.90;;;;;;5132587;22;20770;-60
2023/01/01 00:11:11;;;;;;;101.88;46.67;;;5.30;99.90;;;;;;5122982;27;20027;-60
2023/01/01 00:13:40;;;;;;;110.07;47.40;;;5.30;99.90;;;;;;5112993;28;20096;-61
2023/01/01 00:16:10;;;;;;;109.68;48.80;;;5.20;99.90;;;;;;5112941;28;20476;-60
2023/01/01 00:18:38;;;;;;;112.28;52.42;;;5.20;99.90;;;;;;5120196;27;20043;-60
2023/01/01 00:21:07;;;;;;;189.45;83.55;;;5.20;99.90;;;;;;5133664;27;20043;-60
2023/01/01 00:23:34;;;;;;;198.98;87.07;;;5.20;99.90;;;;;;5132332;27;20077;-60
2023/01/01 00:26:11;;;;;;;195.10;88.10;;;5.10;99.90;;;;;;5133348;27;20077;-60
2023/01/01 00:28:38;;;;;;;198.33;90.17;;;5.10;99.90;;;;;;5122769;27;20043;-60
2023/01/01 00:31:10;;;;;;;169.63;77.18;;;5.00;99.90;;;;;;5128918;27;20070;-60
2023/01/01 00:33:37;;;;;;;104.82;49.95;;;5.00;99.90;;;;;;5133302;27;20487;-60
2023/01/01 00:36:08;;;;;;;126.07;56.78;;;4.90;99.90;;;;;;5132941;27;20039;-60
2023/01/01 00:38:35;;;;;;;75.05;35.13;;;4.80;99.90;;;;;;5130634;27;20645;-60
2023/01/01 00:41:03;;;;;;;83.75;36.35;;;4.80;99.90;;;;;;5121196;27;20074;-60
2023/01/01 00:43:30;;;;;;;65.63;30.85;;;4.70;99.90;;;;;;5111840;28;20446;-60
2023/01/01 00:45:57;;;;;;;85.45;37.97;;;4.70;99.90;;;;;;5111962;28;20504;-60
2023/01/01 00:48:24;;;;;;;90.00;40.60;;;4.80;99.90;;;;;;5112821;28;20048;-61
2023/01/01 00:50:51;;;;;;;;;;;4.80;99.90;;;;;;5122337;27;20035;-60
2023/01/01 00:53:19;;;;;;;60.80;27.33;;;4.80;99.90;;;;;;5120119;27;19968;-60
2023/01/01 00:55:48;;;;;;;71.75;32.13;;;4.80;99.90;;;;;;5112471;28;20059;-60
2023/01/01 00:58:15;;;;;;;83.22;35.35;;;4.80;99.90;;;;;;5116593;27;20067;-60
2023/01/01 01:00:42;;;;;;;;;;;4.70;99.90;;;;;;5129697;27;20039;-61
2023/01/01 01:03:26;;;;;;;73.60;31.10;;;4.70;99.90;;;;;;5132574;27;19919;-60
2023/01/01 01:05:54;;;;;;;72.72;30.77;;;4.70;99.90;;;;;;5131414;27;20043;-60
2023/01/01 01:08:21;;;;;;;73.25;32.42;;;4.60;99.90;;;;;;5126996;27;20496;-61
2023/01/01 01:11:04;;;;;;;89.35;37.80;;;4.70;99.90;;;;;;5111991;28;20092;-61
2023/01/01 01:13:31;;;;;;;76.35;36.95;;;4.80;99.90;;;;;;5111331;28;20039;-60
2023/01/01 01:15:58;;;;;;;67.07;29.52;;;4.80;99.90;;;;;;5111733;28;20410;-60
2023/01/01 01:18:25;;;;;;;82.13;34.13;;;4.80;99.90;;;;;;5126452;27;20035;-60
2023/01/01 01:20:53;;;;;;;72.00;32.15;;;4.80;99.90;;;;;;5114417;27;20131;-61
2023/01/01 01:23:20;;;;;;;72.63;33.80;;;4.80;99.90;;;;;;5110854;28;20048;-60
2023/01/01 01:25:46;;;;;;;;;;;4.70;99.90;;;;;;5120772;27;20055;-60
2023/01/01 01:28:13;;;;;;;79.85;33.80;;;4.70;99.90;;;;;;5123375;27;20376;-60
2023/01/01 01:30:41;;;;;;;64.47;26.77;;;4.70;99.90;;;;;;5115984;27;20483;-61
2023/01/01 01:33:07;;;;;;;74.38;33.80;;;4.80;99.90;;;;;;5119609;27;20445;-60
2023/01/01 01:35:35;;;;;;;75.70;33.60;;;4.80;99.90;;;;;;5121452;27;20059;-60
2023/01/01 01:38:01;;;;;;;77.07;33.75;;;4.50;99.90;;;;;;5120490;27;20043;-61
2023/01/01 01:40:28;;;;;;;71.35;31.27;;;4.50;99.90;;;;;;5119236;27;20075;-60
2023/01/01 01:42:55;;;;;;;79.03;35.85;;;4.50;99.90;;;;;;5117442;27;20042;-60
2023/01/01 01:45:22;;;;;;;83.30;36.72;;;4.50;99.90;;;;;;5122479;27;20441;-60
2023/01/01 01:48:00;;;;;;;81.65;36.25;;;4.60;99.90;;;;;;5120749;27;20257;-60
2023/01/01 01:50:33;;;;;;;95.60;40.45;;;4.70;99.90;;;;;;5117212;27;20487;-61
2023/01/01 01:53:15;;;;;;;100.25;42.22;;;4.70;99.90;;;;;;5119078;27;20035;-60
2023/01/01 01:55:58;;;;;;;99.93;45.05;;;4.70;99.90;;;;;;5122237;27;20088;-60
2023/01/01 01:58:28;;;;;;;106.22;46.55;;;4.70;99.90;;;;;;5122505;28;20039;-60
2023/01/01 02:00:55;;;;;;;99.15;45.08;;;4.70;99.90;;;;;;5122220;28;20044;-60
2023/01/01 02:03:27;;;;;;;103.57;46.72;;;4.70;99.90;;;;;;5119758;27;20039;-61
2023/01/01 02:05:53;;;;;;;106.53;45.88;;;4.70;99.90;;;;;;5120747;27;20495;-61
2023/01/01 02:08:20;;;;;;;102.05;44.78;;;4.70;99.90;;;;;;5121082;28;20039;-60
2023/01/01 02:10:47;;;;;;;93.05;39.10;;;4.70;99.90;;;;;;5114894;28;20143;-60
2023/01/01 02:13:14;;;;;;;93.47;38.85;;;4.80;99.90;;;;;;5120015;28;20043;-60
2023/01/01 02:15:52;;;;;;;77.85;35.75;;;4.80;99.90;;;;;;5124318;28;20057;-60
2023/01/01 02:18:24;;;;;;;60.92;26.13;;;4.90;99.90;;;;;;5122419;28;20054;-60
2023/01/01 02:21:02;;;;;;;69.07;31.70;;;4.90;99.90;;;;;;5121596;28;20496;-61
2023/01/01 02:23:47;;;;;;;70.90;30.73;;;4.90;99.90;;;;;;5120385;28;20075;-60
2023/01/01 02:26:21;;;;;;;47.65;22.70;;;5.00;99.90;;;;;;5116299;28;20491;-60
2023/01/01 02:28:58;;;;;;;37.65;17.35;;;5.00;99.90;;;;;;5120479;28;20039;-60
2023/01/01 02:31:30;;;;;;;36.40;16.23;;;5.10;99.90;;;;;;5120256;28;20086;-60
2023/01/01 02:34:02;;;;;;;39.42;18.00;;;5.20;99.90;;;;;;5121568;27;20067;-60
2023/01/01 02:36:32;;;;;;;38.88;17.55;;;5.20;99.90;;;;;;5118707;27;20515;-60
2023/01/01 02:39:04;;;;;;;41.78;18.17;;;5.20;99.90;;;;;;5119845;27;20377;-60
2023/01/01 02:41:37;;;;;;;40.80;18.67;;;5.10;99.90;;;;;;5126139;27;20047;-60
2023/01/01 02:44:04;;;;;;;38.70;17.73;;;5.10;99.90;;;;;;5135164;27;20096;-60
2023/01/01 02:46:32;;;;;;;42.08;19.80;;;5.20;99.90;;;;;;5123825;27;20024;-60
2023/01/01 02:48:59;;;;;;;39.58;18.20;;;5.10;99.90;;;;;;5115986;27;20047;-60
2023/01/01 02:51:50;;;;;;;38.45;17.00;;;5.20;99.90;;;;;;5134724;27;20043;-60
2023/01/01 02:54:17;;;;;;;37.70;18.00;;;5.20;99.90;;;;;;5135235;27;20200;-60
2023/01/01 02:57:10;;;;;;;32.15;16.30;;;5.10;99.90;;;;;;5135310;27;20039;-60
2023/01/01 03:03:17;;;;;;;35.40;16.55;;;5.20;99.90;;;;;;5068971;28;20055;-60
2023/01/01 03:09:10;;;;;;;34.92;16.48;;;5.20;99.90;;;;;;5131702;27;20095;-60
2023/01/01 03:11:47;;;;;;;31.10;14.50;;;5.20;99.90;;;;;;5131809;27;20047;-60
2023/01/01 03:14:39;;;;;;;29.42;13.80;;;5.20;99.90;;;;;;5114345;28;20032;-61
2023/01/01 03:17:12;;;;;;;31.90;15.90;;;5.10;99.90;;;;;;5113494;28;20044;-60
2023/01/01 03:19:41;;;;;;;32.30;15.38;;;5.20;99.90;;;;;;5114194;28;20089;-60
2023/01/01 03:22:14;;;;;;;32.58;15.50;;;5.20;99.90;;;;;;5113259;27;20043;-60
2023/01/01 03:24:46;;;;;;;26.20;13.90;;;5.00;99.90;;;;;;5114285;28;20097;-61
2023/01/01 03:27:31;;;;;;;30.27;13.65;;;4.90;99.90;;;;;;5116350;27;20039;-60
2023/01/01 03:30:04;;;;;;;35.13;15.27;;;4.90;99.90;;;;;;5126127;27;20114;-60
2023/01/01 03:35:25;;;;;;;27.15;12.93;;;5.10;99.90;;;;;;5129743;27;20067;-60
2023/01/01 03:37:54;;;;;;;27.85;13.13;;;5.10;99.90;;;;;;5130834;27;20047;-60
2023/01/01 03:40:23;;;;;;;25.40;13.00;;;5.00;99.90;;;;;;5120373;27;20092;-60
2023/01/01 03:42:54;;;;;;;37.20;15.48;;;4.90;99.90;;;;;;5125061;27;20423;-60
2023/01/01 03:45:28;;;;;;;36.53;16.23;;;5.00;99.90;;;;;;5125710;27;20080;-60
2023/01/01 03:47:56;;;;;;;29.52;13.95;;;5.10;99.90;;;;;;5125281;27;20499;-60
2023/01/01 03:50:27;;;;;;;;;;;5.10;99.90;;;;;;5117946;27;20104;-61
2023/01/01 03:53:09;;;;;;;30.25;11.95;;;5.20;99.90;;;;;;5115092;27;19962;-60
2023/01/01 03:55:49;;;;;;;26.48;12.02;;;5.10;99.90;;;;;;5114040;27;20035;-60
2023/01/01 03:58:34;;;;;;;26.77;12.40;;;5.00;99.90;;;;;;5113293;28;20035;-60
2023/01/01 04:01:13;;;;;;;24.88;11.80;;;4.90;99.90;;;;;;5112645;28;20488;-60
2023/01/01 04:03:41;;;;;;;26.70;12.38;;;4.70;99.90;;;;;;5113102;28;20051;-60
2023/01/01 04:06:10;;;;;;;27.90;13.00;;;4.80;99.90;;;;;;5124328;27;20202;-60
2023/01/01 04:08:37;;;;;;;24.63;11.57;;;4.80;99.90;;;;;;5118745;27;20113;-60
2023/01/01 04:14:00;;;;;;;28.30;11.02;;;4.80;99.90;;;;;;5114825;27;20484;-60
2023/01/01 04:16:27;;;;;;;24.40;11.82;;;4.90;99.90;;;;;;5112811;28;20043;-60
2023/01/01 04:18:53;;;;;;;26.27;11.48;;;4.90;99.90;;;;;;5111614;28;20682;-60
2023/01/01 04:21:20;;;;;;;26.08;11.18;;;4.90;99.90;;;;;;5118017;27;20047;-60
2023/01/01 04:23:48;;;;;;;24.90;10.98;;;4.80;99.90;;;;;;5125151;27;20127;-60
2023/01/01 04:26:15;;;;;;;23.20;10.63;;;4.70;99.90;;;;;;5113062;28;20039;-60
2023/01/01 04:28:42;;;;;;;24.50;11.18;;;4.60;99.90;;;;;;5113406;27;20112;-60
2023/01/01 04:31:10;;;;;;;27.77;11.95;;;4.70;99.90;;;;;;5129226;27;20116;-60
2023/01/01 04:33:37;;;;;;;21.38;10.45;;;4.60;99.90;;;;;;5132726;27;20058;-60
2023/01/01 04:36:06;;;;;;;28.13;11.57;;;4.70;99.90;;;;;;5133137;27;20167;-60
2023/01/01 04:38:34;;;;;;;26.95;12.40;;;4.70;99.90;;;;;;5133300;27;20043;-60
2023/01/01 04:41:02;;;;;;;27.52;11.60;;;4.70;99.90;;;;;;5127876;27;20039;-60
2023/01/01 04:43:30;;;;;;;23.67;11.60;;;4.70;99.90;;;;;;5132885;27;20047;-60
2023/01/01 04:45:59;;;;;;;21.35;9.32;;;4.80;99.90;;;;;;5132889;27;20058;-61
2023/01/01 04:48:28;;;;;;;19.98;9.50;;;4.80;99.90;;;;;;5131370;27;20050;-61
2023/01/01 04:51:01;;;;;;;20.88;9.88;;;4.90;99.90;;;;;;5112488;28;20043;-60
2023/01/01 04:53:30;;;;;;;18.60;9.27;;;4.70;99.90;;;;;;5111703;28;20092;-60
2023/01/01 04:56:05;;;;;;;21.30;9.70;;;4.70;99.90;;;;;;5113004;27;20039;-60
2023/01/01 04:58:33;;;;;;;20.38;8.57;;;4.60;99.90;;;;;;5122233;27;20060;-61
2023/01/01 05:01:00;;;;;;;18.52;8.35;;;4.60;99.90;;;;;;5133009;27;20039;-60
2023/01/01 05:03:28;;;;;;;14.73;7.57;;;4.70;99.90;;;;;;5132427;27;20051;-60
2023/01/01 05:06:03;;;;;;;19.88;8.85;;;4.70;99.90;;;;;;5132300;27;20448;-60
2023/01/01 05:08:31;;;;;;;17.73;7.82;;;4.60;99.90;;;;;;5119895;27;20451;-60
2023/01/01 05:11:01;;;;;;;20.00;8.52;;;4.70;99.90;;;;;;5111807;28;20047;-60
2023/01/01 05:13:28;;;;;;;23.17;9.05;;;4.60;99.90;;;;;;5110564;28;20086;-61
2023/01/01 05:15:55;;;;;;;15.40;8.02;;;4.70;99.90;;;;;;5112040;28;20031;-61
2023/01/01 05:18:22;;;;;;;16.40;7.43;;;4.80;99.90;;;;;;5116680;27;20439;-60
2023/01/01 05:20:48;;;;;;;14.30;7.72;;;4.80;99.90;;;;;;5112037;28;20050;-60
2023/01/01 05:23:17;;;;;;;16.20;8.73;;;4.80;99.90;;;;;;5122702;27;20105;-60
2023/01/01 05:25:44;;;;;;;17.08;8.27;;;4.80;99.90;;;;;;5122731;27;20569;-60
2023/01/01 05:28:11;;;;;;;20.50;9.50;;;4.80;99.90;;;;;;5111419;27;20473;-60
2023/01/01 05:30:39;;;;;;;23.55;11.02;;;4.80;99.90;;;;;;5111048;28;20048;-60
2023/01/01 05:33:06;;;;;;;27.17;11.43;;;4.80;99.90;;;;;;5113398;27;20044;-60
2023/01/01 05:35:33;;;;;;;24.75;11.90;;;4.70;99.90;;;;;;5122759;27;20069;-60
2023/01/01 05:37:59;;;;;;;28.23;12.50;;;4.60;99.90;;;;;;5111551;28;20044;-60
2023/01/01 05:40:26;;;;;;;38.15;17.08;;;4.60;99.90;;;;;;5116101;27;20035;-60
2023/01/01 05:42:53;;;;;;;27.40;12.18;;;4.60;99.90;;;;;;5131928;27;20039;-60
2023/01/01 05:45:19;;;;;;;41.10;17.40;;;4.60;99.90;;;;;;5126506;27;20078;-60
2023/01/01 05:47:46;;;;;;;35.00;13.35;;;4.50;99.90;;;;;;5111850;28;20047;-60
2023/01/01 05:50:13;;;;;;;41.50;18.80;;;4.40;99.90;;;;;;5110970;28;20047;-60
2023/01/01 05:52:40;;;;;;;48.30;20.38;;;4.40;99.90;;;;;;5118538;27;20409;-60
2023/01/01 05:55:07;;;;;;;51.25;22.13;;;4.40;99.90;;;;;;5123652;28;20069;-60
2023/01/01 05:57:33;;;;;;;42.05;20.50;;;4.40;99.90;;;;;;5115794;28;20122;-60
2023/01/01 06:00:00;;;;;;;33.17;14.43;;;4.50;99.90;;;;;;5111440;28;20461;-60
2023/01/01 06:02:30;;;;;;;35.75;15.40;;;4.30;99.90;;;;;;5115419;28;20051;-60
2023/01/01 06:04:56;;;;;;;31.02;15.50;;;4.10;99.90;;;;;;5111102;28;20040;-60
2023/01/01 06:07:23;;;;;;;30.05;14.35;;;3.90;99.90;;;;;;5128168;22;20058;-61
2023/01/01 06:09:50;;;;;;;43.20;19.00;;;3.70;99.90;;;;;;5104335;27;20102;-61
2023/01/01 06:12:16;;;;;;;45.80;19.38;;;3.70;99.90;;;;;;5097496;28;20044;-61
2023/01/01 06:14:43;;;;;;;45.45;20.20;;;3.70;99.90;;;;;;5095190;28;20044;-61
2023/01/01 06:17:10;;;;;;;47.40;21.08;;;3.60;99.90;;;;;;5095065;28;20070;-61
2023/01/01 06:19:37;;;;;;;41.50;18.25;;;3.70;99.90;;;;;;5096014;28;20036;-61
2023/01/01 06:22:04;;;;;;;46.88;20.17;;;3.70;99.90;;;;;;5104782;28;20044;-61
2023/01/01 06:24:31;;;;;;;42.33;20.00;;;3.70;99.90;;;;;;5115686;28;20067;-61
2023/01/01 06:27:05;;;;;;;25.80;11.45;;;3.80;99.90;;;;;;5115212;28;20097;-61
2023/01/01 06:29:32;;;;;;;27.52;12.07;;;3.90;99.90;;;;;;5108277;28;20046;-61
2023/01/01 06:31:59;;;;;;;28.17;12.73;;;4.10;99.90;;;;;;5094519;28;20078;-61
2023/01/01 06:34:26;;;;;;;28.75;12.65;;;4.10;99.90;;;;;;5094775;28;20047;-61
2023/01/01 06:36:52;;;;;;;32.65;15.52;;;4.00;99.90;;;;;;5095023;28;20558;-61
2023/01/01 06:39:19;;;;;;;34.53;14.48;;;4.00;99.90;;;;;;5102692;28;20082;-61
2023/01/01 06:41:46;;;;;;;39.47;16.42;;;3.90;99.90;;;;;;5098048;28;20040;-61
2023/01/01 06:44:12;;;;;;;27.88;13.95;;;3.80;99.90;;;;;;5094344;28;20054;-61
2023/01/01 06:46:39;;;;;;;31.88;13.73;;;3.80;99.90;;;;;;5094663;28;20040;-61
2023/01/01 06:49:10;;;;;;;24.38;11.45;;;3.80;99.90;;;;;;5093817;28;20070;-61
2023/01/01 06:51:42;;;;;;;24.60;10.57;;;3.80;99.90;;;;;;5094500;28;20482;-61
2023/01/01 06:54:10;;;;;;;24.95;12.13;;;3.80;99.90;;;;;;5105316;28;20044;-61
2023/01/01 06:56:37;;;;;;;26.75;12.20;;;3.90;99.90;;;;;;5106324;28;20089;-61
2023/01/01 06:59:04;;;;;;;;;;;3.90;99.90;;;;;;5092832;28;20089;-61
2023/01/01 07:01:34;;;;;;;24.48;10.95;;;3.80;99.90;;;;;;5094025;28;19928;-61
2023/01/01 07:04:04;;;;;;;20.92;8.90;;;3.80;99.90;;;;;;5094486;28;20048;-61
2023/01/01 07:06:32;;;;;;;20.55;9.40;;;3.80;99.90;;;;;;5094930;28;20055;-61
2023/01/01 07:09:00;;;;;;;34.45;13.65;;;3.90;99.90;;;;;;5106073;28;20192;-61
2023/01/01 07:11:27;;;;;;;34.65;14.30;;;3.60;99.90;;;;;;5102698;28;20044;-61
2023/01/01 07:13:54;;;;;;;;;;;3.40;99.90;;;;;;5077054;28;20040;-61
2023/01/01 07:16:21;;;;;;;37.53;14.95;;;3.20;99.90;;;;;;5106412;28;19965;-61
2023/01/01 07:18:49;;;;;;;31.95;14.90;;;3.20;99.90;;;;;;5092884;28;20097;-61
2023/01/01 07:21:27;;;;;;;40.13;17.30;;;3.30;99.90;;;;;;5093322;28;20047;-61
2023/01/01 07:23:57;;;;;;;36.53;16.30;;;3.30;99.90;;;;;;5094312;28;20044;-61
2023/01/01 07:26:25;;;;;;;35.53;15.80;;;3.40;99.90;;;;;;5093614;28;20052;-61
2023/01/01 07:28:52;;;;;;;41.45;18.48;;;3.40;99.90;;;;;;5093537;28;20123;-61
2023/01/01 07:31:19;;;;;;;27.00;11.25;;;3.50;99.90;;;;;;5093846;28;20074;-61
2023/01/01 07:33:46;;;;;;;30.88;15.45;;;3.60;99.90;;;;;;5096316;28;20040;-61
2023/01/01 07:36:12;;;;;;;30.88;14.65;;;3.60;99.90;;;;;;5075356;28;20446;-61
2023/01/01 07:38:39;;;;;;;40.67;18.85;;;3.70;99.90;;;;;;5093856;28;20097;-61
2023/01/01 07:41:06;;;;;;;45.38;17.58;;;3.70;99.90;;;;;;5092935;27;20548;-61
2023/01/01 07:43:33;;;;;;;55.50;22.13;;;3.60;99.90;;;;;;5094765;28;20028;-61
2023/01/01 07:46:00;;;;;;;62.45;23.20;;;3.60;99.90;;;;;;5104478;28;20389;-61
2023/01/01 07:48:27;;;;;;;;;;;3.60;99.90;;;;;;5113750;28;20051;-61
2023/01/01 07:50:54;;;;;;;47.28;18.45;;;3.40;99.90;;;;;;5113262;28;19963;-61
2023/01/01 07:53:21;;;;;;;41.60;17.48;;;3.40;99.90;;;;;;5113100;28;20043;-61
2023/01/01 07:55:47;;;;;;;57.38;22.35;;;3.50;99.90;;;;;;5113130;28;20089;-61
2023/01/01 07:58:14;;;;;;;29.10;12.65;;;3.50;99.90;;;;;;5111766;28;20035;-61
2023/01/01 08:00:45;;;;;;;35.47;16.75;;;3.70;99.90;;;;;;5101049;28;20043;-61
2023/01/01 08:03:12;;;;;;;36.83;15.15;;;3.70;99.90;;;;;;5098711;28;20048;-61
2023/01/01 08:05:38;;;;;;;39.38;15.88;;;3.70;99.90;;;;;;5093159;28;20036;-61
2023/01/01 08:08:05;;;;;;;31.60;14.52;;;3.50;99.90;;;;;;5090835;28;20177;-60
2023/01/01 08:10:32;;;;;;;30.27;12.95;;;3.60;99.90;;;;;;5093117;28;20097;-61
2023/01/01 08:13:00;;;;;;;40.50;15.30;;;3.60;99.90;;;;;;5097519;28;20549;-61
2023/01/01 08:15:27;;;;;;;30.20;12.70;;;3.70;99.90;;;;;;5092743;28;20039;-61
2023/01/01 08:17:59;;;;;;;29.90;12.43;;;3.80;99.90;;;;;;5100370;28;20039;-61
2023/01/01 08:20:26;;;;;;;24.60;10.93;;;3.90;99.90;;;;;;5097833;28;20488;-61
2023/01/01 08:22:53;;;;;;;25.20;12.05;;;4.00;99.90;;;;;;5111616;28;20096;-61
2023/01/01 08:25:21;;;;;;;26.77;12.63;;;4.10;99.90;;;;;;5112395;28;20048;-61
2023/01/01 08:27:47;;;;;;;23.70;11.50;;;4.10;99.90;;;;;;5104476;28;20104;-61
2023/01/01 08:30:15;;;;;;;25.92;12.75;;;4.10;99.90;;;;;;5112452;28;20051;-61
2023/01/01 08:32:42;;;;;;;25.33;12.40;;;4.10;99.90;;;;;;5112623;28;20488;-61
2023/01/01 08:35:09;;;;;;;23.13;11.43;;;4.20;99.90;;;;;;5104149;28;20065;-61
2023/01/01 08:37:36;;;;;;;21.25;11.32;;;4.20;99.90;;;;;;5105910;28;20492;-61
2023/01/01 08:40:02;;;;;;;24.17;10.40;;;4.20;99.90;;;;;;5095006;28;20096;-61
2023/01/01 08:42:29;;;;;;;20.08;9.25;;;4.20;99.90;;;;;;5091821;28;20056;-61
2023/01/01 08:44:56;;;;;;;26.25;9.63;;;4.30;99.90;;;;;;5091535;28;20047;-61
2023/01/01 08:47:25;;;;;;;27.85;11.02;;;4.30;99.90;;;;;;5092280;28;20044;-61
2023/01/01 08:49:52;;;;;;;20.90;9.98;;;4.40;99.90;;;;;;5095318;28;20068;-61
2023/01/01 08:52:19;;;;;;;22.25;9.85;;;4.60;99.90;;;;;;5091256;28;20048;-61
2023/01/01 08:54:45;;;;;;;;;;;4.90;99.90;;;;;;5092539;28;20036;-61
2023/01/01 08:57:12;;;;;;;20.70;9.95;;;5.10;99.90;;;;;;5101698;28;19965;-61
2023/01/01 08:59:39;;;;;;;35.05;15.43;;;5.30;99.90;;;;;;5092813;28;20105;-61
2023/01/01 09:02:06;;;;;;;34.03;13.82;;;5.40;99.90;;;;;;5095142;28;20585;-61
2023/01/01 09:04:33;;;;;;;27.90;11.90;;;5.60;99.90;;;;;;5091471;28;20048;-61
2023/01/01 09:07:00;;;;;;;28.05;12.38;;;5.80;99.90;;;;;;5090828;28;20040;-61
2023/01/01 09:09:26;;;;;;;19.88;9.23;;;6.10;99.90;;;;;;5094943;28;20552;-61
2023/01/01 09:12:02;;;;;;;20.83;8.82;;;6.20;99.90;;;;;;5090936;28;20493;-61
2023/01/01 09:14:29;;;;;;;20.75;10.00;;;6.30;99.90;;;;;;5091541;28;20458;-61
2023/01/01 09:16:57;;;;;;;20.73;9.75;;;6.30;99.90;;;;;;5099757;28;20040;-61
2023/01/01 09:19:23;;;;;;;20.88;8.25;;;6.40;99.90;;;;;;5103720;28;20492;-61
2023/01/01 09:21:51;;;;;;;17.35;8.25;;;6.50;99.90;;;;;;5111392;28;20096;-61
2023/01/01 09:24:17;;;;;;;;;;;6.60;99.90;;;;;;5112447;28;20047;-61
2023/01/01 09:26:45;;;;;;;17.10;7.18;;;6.90;99.90;;;;;;5110749;28;19969;-61
2023/01/01 09:29:12;;;;;;;12.20;6.47;;;7.00;99.90;;;;;;5094858;28;20048;-61
2023/01/01 09:31:38;;;;;;;14.15;6.93;;;7.10;99.90;;;;;;5097778;28;20052;-61
2023/01/01 09:34:05;;;;;;;13.85;7.10;;;7.20;99.90;;;;;;5110382;28;20112;-61
2023/01/01 09:36:32;;;;;;;15.82;8.00;;;7.30;99.90;;;;;;5092926;28;20066;-61
2023/01/01 09:38:59;;;;;;;15.95;7.53;;;7.40;99.90;;;;;;5090557;28;20047;-61
2023/01/01 09:41:45;;;;;;;13.25;7.50;;;7.50;99.90;;;;;;5092665;28;20033;-61
2023/01/01 09:44:17;;;;;;;15.43;6.75;;;7.70;99.90;;;;;;5091475;28;20047;-61
2023/01/01 09:46:44;;;;;;;15.57;7.05;;;7.80;99.90;;;;;;5089901;28;20561;-61
2023/01/01 09:49:21;;;;;;;13.23;7.30;;;8.00;99.90;;;;;;5093522;28;20048;-61
2023/01/01 09:51:54;;;;;;;12.07;6.43;;;8.00;99.90;;;;;;5101813;28;20386;-61
2023/01/01 09:54:32;;;;;;;12.73;6.43;;;8.20;99.90;;;;;;5104290;28;20408;-61
2023/01/01 09:57:02;;;;;;;10.18;5.13;;;8.30;99.90;;;;;;5110954;28;20346;-61
2023/01/01 09:59:29;;;;;;;11.32;5.45;;;8.50;99.90;;;;;;5111056;28;20055;-61
2023/01/01 10:02:20;;;;;;;12.30;6.07;;;8.70;99.90;;;;;;5110236;28;20499;-62
2023/01/01 10:05:20;;;;;;;11.40;6.25;;;8.80;99.90;;;;;;5110152;28;20118;-61
2023/01/01 10:07:53;;;;;;;;;;;9.10;99.90;;;;;;5110996;28;20108;-61
2023/01/01 10:10:29;;;;;;;10.35;5.88;;;9.30;99.90;;;;;;5102104;28;19999;-61
2023/01/01 10:13:23;;;;;;;10.57;5.53;;;9.40;99.90;;;;;;5090549;28;20433;-62
2023/01/01 10:16:00;;;;;;;9.40;5.25;;;9.60;99.90;;;;;;5089790;28;20064;-61
2023/01/01 10:18:37;;;;;;;12.63;5.70;;;9.70;99.90;;;;;;5090961;28;20048;-61
2023/01/01 10:21:19;;;;;;;11.38;5.40;;;9.80;99.90;;;;;;5090137;28;20047;-61
2023/01/01 10:23:55;;;;;;;13.32;5.70;;;9.90;99.90;;;;;;5090930;28;20097;-61
2023/01/01 10:26:25;;;;;;;11.63;6.20;;;10.00;99.90;;;;;;5090855;28;20044;-61
2023/01/01 10:29:13;;;;;;;11.75;6.25;;;10.00;99.90;;;;;;5090851;28;20070;-61
2023/01/01 10:31:44;;;;;;;14.10;6.13;;;10.10;99.90;;;;;;5090704;28;20040;-61
2023/01/01 10:34:27;;;;;;;9.52;5.35;;;10.10;99.90;;;;;;5097109;28;20084;-59
2023/01/01 10:36:56;;;;;;;12.98;5.70;;;10.20;99.90;;;;;;5102937;28;20484;-60
2023/01/01 10:39:23;;;;;;;14.88;6.28;;;10.30;99.90;;;;;;5110874;28;20492;-59
2023/01/01 10:41:50;;;;;;;;;;;10.40;99.90;;;;;;5091429;28;20491;-60
2023/01/01 10:44:28;;;;;;;13.02;5.97;;;10.40;99.90;;;;;;5090777;28;20380;-59
2023/01/01 10:46:59;;;;;;;;;;;10.50;99.90;;;;;;5091445;28;20048;-59
2023/01/01 10:49:25;;;;;;;12.20;5.60;;;10.50;99.90;;;;;;5094219;28;19920;-60
2023/01/01 10:51:53;;;;;;;9.93;5.47;;;10.60;99.90;;;;;;5090176;28;20096;-59
2023/01/01 10:54:38;;;;;;;12.25;5.63;;;10.70;99.90;;;;;;5092677;28;20040;-60
2023/01/01 10:57:15;;;;;;;10.25;5.13;;;10.70;99.90;;;;;;5094656;28;20044;-60
2023/01/01 10:59:43;;;;;;;12.75;5.32;;;10.70;99.90;;;;;;5107943;28;20051;-62
2023/01/01 11:02:23;;;;;;;16.15;5.65;;;10.80;99.90;;;;;;5106299;28;20522;-60
2023/01/01 11:04:51;;;;;;;10.05;5.25;;;10.90;99.90;;;;;;5114839;28;20079;-59
2023/01/01 11:07:29;;;;;;;10.80;5.68;;;11.00;99.90;;;;;;5113582;28;20055;-59
2023/01/01 11:09:58;;;;;;;;;;;10.90;99.90;;;;;;5094520;28;20113;-60
2023/01/01 11:12:34;;;;;;;10.23;5.57;;;10.90;99.90;;;;;;5093768;28;19920;-59
2023/01/01 11:15:31;;;;;;;9.13;4.60;;;10.90;99.90;;;;;;5094112;28;20049;-59
2023/01/01 11:18:16;;;;;;;13.05;6.40;;;10.90;99.90;;;;;;5103723;28;20070;-59
2023/01/01 11:20:49;;;;;;;11.75;6.43;;;11.00;99.90;;;;;;5114709;28;20097;-60
2023/01/01 11:23:39;;;;;;;14.32;6.65;;;11.10;99.90;;;;;;5113469;28;20696;-59
2023/01/01 11:26:20;;;;;;;25.17;9.13;;;11.20;99.90;;;;;;5101013;28;20083;-59
2023/01/01 11:29:04;;;;;;;15.23;6.78;;;11.20;99.90;;;;;;5111908;28;20101;-59
2023/01/01 11:31:37;;;;;;;15.73;5.85;;;11.30;99.90;;;;;;5110567;28;20055;-61
2023/01/01 11:34:15;;;;;;;8.95;4.97;;;11.30;99.90;;;;;;5100476;28;20059;-61
2023/01/01 11:36:42;;;;;;;10.27;4.60;;;11.30;99.90;;;;;;5093336;28;20048;-63
2023/01/01 11:39:27;;;;;;;7.57;4.20;;;11.30;99.90;;;;;;5093470;28;20212;-61
2023/01/01 11:41:56;;;;;;;7.70;4.15;;;11.30;99.90;;;;;;5106791;28;20048;-61
2023/01/01 11:44:34;;;;;;;9.57;4.78;;;11.40;99.90;;;;;;5106569;28;20500;-61
2023/01/01 11:47:03;;;;;;;7.68;3.90;;;11.40;99.90;;;;;;5113065;28;20322;-61
2023/01/01 11:49:31;;;;;;;7.60;4.00;;;11.40;99.90;;;;;;5109784;28;20109;-61
2023/01/01 11:51:58;;;;;;;6.68;3.58;;;11.50;99.90;;;;;;5111430;28;20043;-61
2023/01/01 11:54:31;;;;;;;8.32;4.18;;;11.50;99.90;;;;;;5112474;28;20051;-61
2023/01/01 11:57:10;;;;;;;9.43;4.47;;;11.60;99.90;;;;;;5093820;28;20040;-61
2023/01/01 12:00:00;;;;;;;12.05;4.85;;;11.60;99.90;;;;;;5101591;28;20031;-60
2023/01/01 12:02:56;;;;;;;8.25;4.78;;;11.70;99.90;;;;;;5107292;28;20100;-61
2023/01/01 12:05:53;;;;;;;8.98;4.60;;;11.70;99.90;;;;;;5069119;28;20055;-60
2023/01/01 12:08:30;;;;;;;7.05;3.70;;;11.70;99.90;;;;;;5146154;22;20047;-60
2023/01/01 12:11:15;;;;;;;8.17;3.90;;;11.80;99.90;;;;;;5132542;27;20101;-60
2023/01/01 12:14:06;;;;;;;9.65;4.30;;;11.90;99.90;;;;;;5138683;27;20647;-60
2023/01/01 12:16:56;;;;;;;7.72;3.67;;;11.80;99.90;;;;;;5140539;27;20376;-60
2023/01/01 12:20:00;;;;;;;6.35;3.17;;;11.80;99.90;;;;;;5123597;27;20039;-60
2023/01/01 12:22:27;;;;;;;6.38;4.18;;;11.80;99.90;;;;;;5117287;27;20059;-61
2023/01/01 12:24:54;;;;;;;8.52;4.47;;;11.80;99.90;;;;;;5115845;27;20055;-61
2023/01/01 12:27:36;;;;;;;;;;;11.80;99.90;;;;;;5121692;27;20104;-61
2023/01/01 12:30:27;;;;;;;7.60;4.03;;;11.80;99.90;;;;;;5117179;27;20452;-61
2023/01/01 12:33:26;;;;;;;10.80;3.58;;;11.90;99.90;;;;;;5133228;27;20051;-61
2023/01/01 12:36:19;;;;;;;6.03;3.20;;;12.00;99.90;;;;;;5132619;27;20100;-61
2023/01/01 12:39:26;;;;;;;6.28;3.80;;;12.10;99.90;;;;;;5124449;27;20067;-60
2023/01/01 12:42:02;;;;;;;5.70;3.30;;;12.10;99.90;;;;;;5129419;27;20054;-61
2023/01/01 12:44:43;;;;;;;6.40;3.22;;;12.20;99.90;;;;;;5132959;27;20096;-61
2023/01/01 12:47:32;;;;;;;6.60;3.10;;;12.20;99.90;;;;;;5126781;27;20036;-60
2023/01/01 12:50:06;;;;;;;5.03;2.65;;;12.20;99.90;;;;;;5132818;27;20063;-61
2023/01/01 12:52:57;;;;;;;4.85;2.60;;;12.20;99.90;;;;;;5131417;27;20445;-59
2023/01/01 12:55:46;;;;;;;5.53;2.67;;;12.20;99.90;;;;;;5118282;27;20171;-61
2023/01/01 12:58:22;;;;;;;6.35;2.78;;;12.20;99.90;;;;;;5111802;28;20047;-60
2023/01/01 13:01:23;;;;;;;5.88;2.83;;;12.20;99.90;;;;;;5114076;27;20040;-61
2023/01/01 13:04:11;;;;;;;4.75;2.60;;;12.20;99.90;;;;;;5122677;27;20038;-60
2023/01/01 13:07:04;;;;;;;6.55;3.15;;;12.20;99.90;;;;;;5127487;27;20047;-61
2023/01/01 13:09:37;;;;;;;7.80;3.83;;;12.20;99.90;;;;;;5132197;27;20043;-61
2023/01/01 13:12:15;;;;;;;10.60;2.97;;;12.20;99.90;;;;;;5124866;27;20163;-61
2023/01/01 13:14:44;;;;;;;5.55;2.67;;;12.20;99.90;;;;;;5129035;27;20491;-61
2023/01/01 13:17:17;;;;;;;4.35;2.63;;;12.30;99.90;;;;;;5123743;27;20039;-61
2023/01/01 13:19:44;;;;;;;4.68;2.55;;;12.30;99.90;;;;;;5122109;27;20044;-61
2023/01/01 13:22:37;;;;;;;7.95;3.75;;;12.40;99.90;;;;;;5117273;27;20080;-61